首页
METAR-TAF:

METAR-TAF

机场 :

马拉开波, 委内瑞拉

纬度: 10-34N, 经度: 071-44W, 海拔: 66米

当前天气观测

该预报发布于4小时和24分钟前的22:00 UTC
温度 30°C
湿度 79%
气压 1007 hPa
能见度10公里或以上
多云层高于1300英尺

METAR: SVMC 242200Z /////KT 9999 BKN013 30/26 Q1007

时间: 22:24 (02:24 UTC)

预报

该预报发布于4小时和24分钟前的22:00 UTC
预报有效从25日的 00点(UTC)到 26日的 00点(UTC)
风速4节,风向东转东南
能見度: 9000
散云层高于1600英尺
多云层高于8000英尺
毛毛雨
短暂存在
从 25日的 03点(UTC)到 25日的 07点(UTC)
风速10节,风向东转东南
能見度: 8000
阴天层高于1300英尺
雷暴, 雨,

TAF: SVMC 242200Z 2500/2600 11004KT 9000 DZ SCT016 BKN080 TX35/2519Z TN25/2508Z TEMPO 2503/2507 11010KT 8000 TSRA OVC013

超过4000个机场的气象观测和天气预报(METAR&TAF报告)。

可查询的气象台以黄色和红色小点在地图上表示。

将鼠标移到小点上方,可查看气象台名称。

然后点击查看天气观测和预报。

如需切换地图:点击带黑十字的绿色按钮放大地图;点击带横线的绿色按钮缩小地图;或者点击绿色箭头查看邻近地区的地图。


METAR-TAF: